Helen D. Coppedge — WCA5274 — position and weather

sailwx.info

Track history (hours):
 
Tides and Currents Weather Stations Pressure Air Temp Water Temp Dewpoint Dewpoint Depression Visibility Wind Speed Wind Dir Waves Ship Positions

Helen D. Coppedge

Owner: MORAN TOWING CORPORATION, Philadelphia, PA. More information available from US FCC via Universal Licensing System and Coast Guard Vessel Documentation Center.

Last reported at 2016-May-18 19:19 UTC. Time now 2016-May-25 03:23 UTC.
Position N 40°47' W 073°60'.

Length 30 m; draft 4 m.

Type: Tug. MMSI: 367177370.

Date/timePositionNaut miles runAvg speedWind from/ knotsBaromVisibWave heightAir tempDewpointWater temp
2016-May-18 19:19N 40°47' W 073°60'6 8.2
2016-May-18 18:33N 40°41' W 074°02'36 9.0
2016-May-18 14:31N 40°05' W 073°53'9 9.6
2016-May-18 13:32N 39°56' W 073°55'10 9.9
2016-May-18 12:33N 39°47' W 073°59'10 9.6
2016-May-18 11:33N 39°38' W 074°03'1110.1
2016-May-18 10:27N 39°27' W 074°08'313 9.2
2016-May-17 00:20N 34°33' W 076°19'910.1
2016-May-16 23:26N 34°27' W 076°28'8 9.7
2016-May-16 22:33N 34°33' W 076°36'9 9.0
2016-May-16 21:34N 34°41' W 076°40'3 2.6
2016-May-16 20:33N 34°43' W 076°42'0 0.0
2016-May-16 19:33N 34°43' W 076°42'0 0.0
2016-May-16 18:33N 34°43' W 076°42'0 0.0
2016-May-16 17:33N 34°43' W 076°42'0 0.0
2016-May-16 16:33N 34°43' W 076°42'0 0.0
2016-May-16 15:33N 34°43' W 076°42'0 0.2
2016-May-16 14:34N 34°43' W 076°42'0 0.1
2016-May-16 13:34N 34°43' W 076°42'0 0.0
2016-May-16 12:33N 34°43' W 076°42'  
Track history (hours):
 
Tides and Currents Weather Stations Pressure Air Temp Water Temp Dewpoint Dewpoint Depression Visibility Wind Speed Wind Dir Waves Ship Positions

Helen D. Coppedge

Owner: MORAN TOWING CORPORATION, Philadelphia, PA. More information available from US FCC via Universal Licensing System and Coast Guard Vessel Documentation Center.

Last reported at 2016-May-18 19:19 UTC. Time now 2016-May-25 03:23 UTC.
Position N 40°47' W 073°60'.

Length 30 m; draft 4 m.

Type: Tug. MMSI: 367177370.

Date/timePositionNaut miles runAvg speedWind from/ knotsBaromVisibWave heightAir tempDewpointWater temp
2016-May-18 19:19N 40°47' W 073°60'6 8.2
2016-May-18 18:33N 40°41' W 074°02'36 9.0
2016-May-18 14:31N 40°05' W 073°53'9 9.6
2016-May-18 13:32N 39°56' W 073°55'10 9.9
2016-May-18 12:33N 39°47' W 073°59'10 9.6
2016-May-18 11:33N 39°38' W 074°03'1110.1
2016-May-18 10:27N 39°27' W 074°08'313 9.2
2016-May-17 00:20N 34°33' W 076°19'910.1
2016-May-16 23:26N 34°27' W 076°28'8 9.7
2016-May-16 22:33N 34°33' W 076°36'9 9.0
2016-May-16 21:34N 34°41' W 076°40'3 2.6
2016-May-16 20:33N 34°43' W 076°42'0 0.0
2016-May-16 19:33N 34°43' W 076°42'0 0.0
2016-May-16 18:33N 34°43' W 076°42'0 0.0
2016-May-16 17:33N 34°43' W 076°42'0 0.0
2016-May-16 16:33N 34°43' W 076°42'0 0.0
2016-May-16 15:33N 34°43' W 076°42'0 0.2
2016-May-16 14:34N 34°43' W 076°42'0 0.1
2016-May-16 13:34N 34°43' W 076°42'0 0.0
2016-May-16 12:33N 34°43' W 076°42'  

Dump ship's entire track history